Time;durP1;ratioP1;P1;durP2;ratioP2;P2;SDS_P1;SDS_P2;PMS_P1;PMS_P2;Temp;Humidity;BMP_temperature;BMP_pressure;BME280_temperature;BME280_humidity;BME280_pressure;Samples;Min_cycle;Max_cycle;Signal;HPM_P1;HPM_P2
2023/08/07 00:01:27;;;;;;;10.25;5.78;;;;;;;;;;4988760;28;20050;-79
2023/08/07 00:04:12;;;;;;;6.28;5.47;;;;;;;;;;4996731;28;20042;-77
2023/08/07 00:06:58;;;;;;;9.18;5.72;;;;;;;;;;4987853;28;20469;-81
2023/08/07 00:09:43;;;;;;;7.07;5.70;;;;;;;;;;4996501;28;20050;-78
2023/08/07 00:12:29;;;;;;;8.45;5.68;;;;;;;;;;4988249;28;20046;-79
2023/08/07 00:15:14;;;;;;;7.47;6.63;;;;;;;;;;4996462;28;20034;-79
2023/08/07 00:18:00;;;;;;;10.13;6.32;;;;;;;;;;4981931;28;20050;-77
2023/08/07 00:20:46;;;;;;;14.82;6.82;;;;;;;;;;4996160;28;20384;-79
2023/08/07 00:23:30;;;;;;;7.95;6.57;;;;;;;;;;4987914;28;20054;-78
2023/08/07 00:26:16;;;;;;;14.02;7.00;;;;;;;;;;4995990;28;20046;-79
2023/08/07 00:29:01;;;;;;;10.90;6.47;;;;;;;;;;4988508;28;20389;-78
2023/08/07 00:31:47;;;;;;;8.23;6.28;;;;;;;;;;4995183;28;20423;-78
2023/08/07 00:34:33;;;;;;;8.13;6.20;;;;;;;;;;4987735;28;20061;-78
2023/08/07 00:37:18;;;;;;;9.20;6.30;;;;;;;;;;4996041;28;20481;-79
2023/08/07 00:40:04;;;;;;;7.57;6.57;;;;;;;;;;4996178;28;20432;-80
2023/08/07 00:42:49;;;;;;;7.63;6.00;;;;;;;;;;4995855;28;20046;-77
2023/08/07 00:45:43;;;;;;;8.75;6.30;;;;;;;;;;4988147;28;20492;-78
2023/08/07 00:48:29;;;;;;;7.07;5.60;;;;;;;;;;4987318;28;20050;-81
2023/08/07 00:51:15;;;;;;;7.20;5.60;;;;;;;;;;4974354;28;20042;-79
2023/08/07 00:54:01;;;;;;;9.13;5.68;;;;;;;;;;4995553;28;20058;-79
2023/08/07 00:56:46;;;;;;;7.30;5.50;;;;;;;;;;4994642;28;20050;-78
2023/08/07 00:59:33;;;;;;;8.38;5.90;;;;;;;;;;4980863;28;20054;-79
2023/08/07 01:02:18;;;;;;;10.32;5.40;;;;;;;;;;4987045;28;20477;-78
2023/08/07 01:05:05;;;;;;;7.00;5.82;;;;;;;;;;4987681;28;20038;-80
2023/08/07 01:07:54;;;;;;;12.05;6.50;;;;;;;;;;4987180;28;20046;-79
2023/08/07 01:11:10;;;;;;;7.30;6.50;;;;;;;;;;5000722;28;20050;-78
2023/08/07 01:14:08;;;;;;;12.57;6.93;;;;;;;;;;4994010;28;20413;-80
2023/08/07 01:17:15;;;;;;;9.38;6.63;;;;;;;;;;4994590;28;20493;-79
2023/08/07 01:20:01;;;;;;;8.15;6.50;;;;;;;;;;4994956;28;20042;-79
2023/08/07 01:22:47;;;;;;;9.13;6.57;;;;;;;;;;4994835;28;20046;-78
2023/08/07 01:25:32;;;;;;;7.95;6.90;;;;;;;;;;4995149;28;20042;-79
2023/08/07 01:28:27;;;;;;;8.88;7.55;;;;;;;;;;4995412;28;20043;-78
2023/08/07 01:31:17;;;;;;;10.90;7.55;;;;;;;;;;4995113;28;20501;-80
2023/08/07 01:34:08;;;;;;;13.40;6.25;;;;;;;;;;4987178;28;20155;-80
2023/08/07 01:36:55;;;;;;;6.40;5.70;;;;;;;;;;4994673;28;20497;-79
2023/08/07 01:39:43;;;;;;;11.30;6.45;;;;;;;;;;4995250;28;20052;-79
2023/08/07 01:42:29;;;;;;;7.95;6.50;;;;;;;;;;4986988;28;20050;-79
2023/08/07 01:45:22;;;;;;;9.00;6.57;;;;;;;;;;4994919;28;20046;-79
2023/08/07 01:48:09;;;;;;;11.00;7.00;;;;;;;;;;4995091;28;20480;-80
2023/08/07 01:50:55;;;;;;;10.88;6.13;;;;;;;;;;4993760;28;20046;-79
2023/08/07 01:53:40;;;;;;;7.07;6.38;;;;;;;;;;4995068;28;20054;-79
2023/08/07 01:56:25;;;;;;;7.80;5.63;;;;;;;;;;4986715;28;20050;-79
2023/08/07 01:59:11;;;;;;;10.50;6.13;;;;;;;;;;4994841;28;20117;-79
2023/08/07 02:01:56;;;;;;;12.77;6.00;;;;;;;;;;4986330;28;20050;-80
2023/08/07 02:04:43;;;;;;;11.23;6.43;;;;;;;;;;4994180;28;20038;-80
2023/08/07 02:07:27;;;;;;;11.18;6.22;;;;;;;;;;5000451;28;20050;-80
2023/08/07 02:10:12;;;;;;;7.25;6.00;;;;;;;;;;4994546;28;20058;-80
2023/08/07 02:12:59;;;;;;;11.43;5.65;;;;;;;;;;4993273;28;20053;-80
2023/08/07 02:15:45;;;;;;;11.20;6.25;;;;;;;;;;4986322;28;20050;-80
2023/08/07 02:18:30;;;;;;;10.40;5.40;;;;;;;;;;4986220;28;20482;-79
2023/08/07 02:21:15;;;;;;;12.30;5.60;;;;;;;;;;4985980;28;20046;-79
2023/08/07 02:24:00;;;;;;;7.53;5.22;;;;;;;;;;4986324;28;20397;-80
2023/08/07 02:26:46;;;;;;;11.35;5.53;;;;;;;;;;4985957;28;20054;-79
2023/08/07 02:29:33;;;;;;;6.68;4.70;;;;;;;;;;5000189;28;20050;-77
2023/08/07 02:32:19;;;;;;;8.68;5.20;;;;;;;;;;4990124;28;20050;-79
2023/08/07 02:35:05;;;;;;;5.53;4.07;;;;;;;;;;4998347;28;20042;-79
2023/08/07 02:37:50;;;;;;;7.20;3.80;;;;;;;;;;5004022;28;20417;-79
2023/08/07 02:40:36;;;;;;;5.45;3.70;;;;;;;;;;4989855;28;20404;-79
2023/08/07 02:43:21;;;;;;;10.98;4.07;;;;;;;;;;4997112;28;20046;-80
2023/08/07 02:46:07;;;;;;;10.52;4.65;;;;;;;;;;4989730;28;20404;-78
2023/08/07 02:48:53;;;;;;;6.63;4.22;;;;;;;;;;4997667;28;20039;-78
2023/08/07 02:51:38;;;;;;;12.15;4.57;;;;;;;;;;4989637;28;20050;-79
2023/08/07 02:54:24;;;;;;;6.72;3.95;;;;;;;;;;4989598;28;20046;-79
2023/08/07 02:57:09;;;;;;;5.30;3.75;;;;;;;;;;4990351;28;20050;-79
2023/08/07 02:59:55;;;;;;;10.05;3.60;;;;;;;;;;4997640;28;20050;-79
2023/08/07 03:02:41;;;;;;;6.50;4.25;;;;;;;;;;4996913;28;20050;-79
2023/08/07 03:05:26;;;;;;;14.32;5.85;;;;;;;;;;4976007;28;20042;-78
2023/08/07 03:08:11;;;;;;;17.73;6.05;;;;;;;;;;4997277;28;20051;-79
2023/08/07 03:10:57;;;;;;;20.55;6.45;;;;;;;;;;4975766;28;20042;-79
2023/08/07 03:13:44;;;;;;;16.35;5.75;;;;;;;;;;4988832;28;20046;-79
2023/08/07 03:16:30;;;;;;;29.73;6.38;;;;;;;;;;5002927;28;20046;-80
2023/08/07 03:19:15;;;;;;;25.77;5.82;;;;;;;;;;5003631;28;20046;-79
2023/08/07 03:22:01;;;;;;;31.25;6.65;;;;;;;;;;4989208;28;20054;-79
2023/08/07 03:24:47;;;;;;;28.40;6.80;;;;;;;;;;4988998;28;20403;-79
2023/08/07 03:27:33;;;;;;;27.42;8.02;;;;;;;;;;4989377;28;20401;-80
2023/08/07 03:30:18;;;;;;;28.95;7.63;;;;;;;;;;4988626;28;20054;-79
2023/08/07 03:33:04;;;;;;;11.57;7.68;;;;;;;;;;5002810;28;20054;-80
2023/08/07 03:35:49;;;;;;;14.52;7.47;;;;;;;;;;5002624;28;20054;-79
2023/08/07 03:38:35;;;;;;;35.05;22.75;;;;;;;;;;4975910;28;20415;-78
2023/08/07 03:41:20;;;;;;;31.65;10.95;;;;;;;;;;4987751;28;20046;-78
2023/08/07 03:44:06;;;;;;;13.82;8.15;;;;;;;;;;4989104;28;20469;-78
2023/08/07 03:46:52;;;;;;;12.50;7.97;;;;;;;;;;4988678;28;20050;-78
2023/08/07 03:49:41;;;;;;;11.55;8.18;;;;;;;;;;4988619;28;20050;-77
2023/08/07 03:52:27;;;;;;;11.25;8.13;;;;;;;;;;4989132;28;20400;-80
2023/08/07 03:55:13;;;;;;;11.85;8.15;;;;;;;;;;4988629;28;20046;-76
2023/08/07 03:57:58;;;;;;;15.60;8.52;;;;;;;;;;4996309;28;20046;-78
2023/08/07 04:00:44;;;;;;;12.63;7.25;;;;;;;;;;4996722;28;20050;-78
2023/08/07 04:03:29;;;;;;;10.45;6.28;;;;;;;;;;4988013;28;20485;-80
2023/08/07 04:06:15;;;;;;;10.90;6.22;;;;;;;;;;5001954;28;20485;-80
2023/08/07 04:09:03;;;;;;;9.38;6.20;;;;;;;;;;4987926;28;20397;-78
2023/08/07 04:11:49;;;;;;;14.05;6.20;;;;;;;;;;4987822;28;20042;-80
2023/08/07 04:14:34;;;;;;;7.75;6.18;;;;;;;;;;4996611;28;20054;-79
2023/08/07 04:17:19;;;;;;;10.40;5.50;;;;;;;;;;4996361;28;20424;-80
2023/08/07 04:20:06;;;;;;;11.27;6.07;;;;;;;;;;4987355;28;20046;-79
2023/08/07 04:22:51;;;;;;;7.93;4.90;;;;;;;;;;4996713;28;20469;-78
2023/08/07 04:25:37;;;;;;;6.18;4.57;;;;;;;;;;4995752;28;20385;-78
2023/08/07 04:28:23;;;;;;;5.85;4.43;;;;;;;;;;4996199;28;20046;-78
2023/08/07 04:31:08;;;;;;;7.63;4.10;;;;;;;;;;4995125;28;20401;-79
2023/08/07 04:33:54;;;;;;;8.07;3.90;;;;;;;;;;4996232;28;20062;-78
2023/08/07 04:36:39;;;;;;;6.05;4.13;;;;;;;;;;4994793;28;20047;-79
2023/08/07 04:39:24;;;;;;;6.85;3.35;;;;;;;;;;4995549;28;20481;-78
2023/08/07 04:42:10;;;;;;;8.10;3.63;;;;;;;;;;4996020;28;20046;-78
2023/08/07 04:44:55;;;;;;;5.47;3.40;;;;;;;;;;4995816;28;20046;-78
2023/08/07 04:47:41;;;;;;;4.00;3.35;;;;;;;;;;4996142;28;20046;-78
2023/08/07 04:50:26;;;;;;;6.90;3.47;;;;;;;;;;4996021;28;20043;-79
2023/08/07 04:53:12;;;;;;;6.63;3.53;;;;;;;;;;4993367;28;20035;-79
2023/08/07 04:55:59;;;;;;;9.05;2.80;;;;;;;;;;4987763;28;20046;-79
2023/08/07 04:58:45;;;;;;;10.02;3.05;;;;;;;;;;4994915;28;20050;-79
2023/08/07 05:01:30;;;;;;;5.13;2.67;;;;;;;;;;4987713;28;20046;-79
2023/08/07 05:04:15;;;;;;;5.72;2.70;;;;;;;;;;4995569;28;20030;-78
2023/08/07 05:07:01;;;;;;;5.18;2.53;;;;;;;;;;4987090;28;20405;-79
2023/08/07 05:09:46;;;;;;;5.38;2.70;;;;;;;;;;4987304;28;20485;-79
2023/08/07 05:12:31;;;;;;;4.22;2.42;;;;;;;;;;4994744;28;20050;-79
2023/08/07 05:15:16;;;;;;;3.90;3.10;;;;;;;;;;4995077;28;20050;-79
2023/08/07 05:18:02;;;;;;;5.22;3.20;;;;;;;;;;4995302;28;20034;-78
2023/08/07 05:20:48;;;;;;;5.68;3.20;;;;;;;;;;4994887;28;20489;-80
2023/08/07 05:23:33;;;;;;;4.22;2.90;;;;;;;;;;4994924;28;20049;-80
2023/08/07 05:26:19;;;;;;;6.75;2.60;;;;;;;;;;4995184;28;20046;-79
2023/08/07 05:29:04;;;;;;;4.45;2.53;;;;;;;;;;4995093;28;20050;-80
2023/08/07 05:31:50;;;;;;;8.88;2.75;;;;;;;;;;4987218;28;20051;-81
2023/08/07 05:34:34;;;;;;;6.20;2.90;;;;;;;;;;4994725;28;20050;-80
2023/08/07 05:37:20;;;;;;;6.40;3.90;;;;;;;;;;4980308;28;20046;-78
2023/08/07 05:40:06;;;;;;;8.50;3.67;;;;;;;;;;4993994;28;20042;-78
2023/08/07 05:42:51;;;;;;;9.05;4.47;;;;;;;;;;4986171;28;20042;-78
2023/08/07 05:45:37;;;;;;;12.07;5.78;;;;;;;;;;4994715;28;20038;-78
2023/08/07 05:48:22;;;;;;;8.38;5.10;;;;;;;;;;4994602;28;20050;-79
2023/08/07 05:51:08;;;;;;;9.95;4.68;;;;;;;;;;4994947;28;20050;-79
2023/08/07 05:53:54;;;;;;;8.10;3.38;;;;;;;;;;4994660;28;20076;-78
2023/08/07 05:56:41;;;;;;;8.95;3.30;;;;;;;;;;4994325;28;20042;-78
2023/08/07 05:59:26;;;;;;;5.88;2.88;;;;;;;;;;4979980;28;20469;-80
2023/08/07 06:02:11;;;;;;;4.97;2.78;;;;;;;;;;4995165;28;20053;-78
2023/08/07 06:04:57;;;;;;;2.75;2.05;;;;;;;;;;5007976;28;20034;-78
2023/08/07 06:07:43;;;;;;;5.60;2.53;;;;;;;;;;5008649;28;20037;-79
2023/08/07 06:10:28;;;;;;;10.90;3.08;;;;;;;;;;4988670;28;20480;-79
2023/08/07 06:13:14;;;;;;;5.60;2.45;;;;;;;;;;4999390;28;20046;-80
2023/08/07 06:15:59;;;;;;;4.78;2.75;;;;;;;;;;4998493;28;20042;-80
2023/08/07 06:18:45;;;;;;;6.70;3.47;;;;;;;;;;5005603;28;20513;-79
2023/08/07 06:21:31;;;;;;;4.00;3.13;;;;;;;;;;4999011;28;20046;-78
2023/08/07 06:24:16;;;;;;;7.70;2.60;;;;;;;;;;4998783;28;20393;-78
2023/08/07 06:27:03;;;;;;;5.05;2.70;;;;;;;;;;5002331;28;20046;-78
2023/08/07 06:29:48;;;;;;;5.03;2.40;;;;;;;;;;5002698;28;20046;-76
2023/08/07 06:32:33;;;;;;;4.03;2.40;;;;;;;;;;4993570;28;20057;-78
2023/08/07 06:35:18;;;;;;;9.65;2.65;;;;;;;;;;5003039;28;20481;-78
2023/08/07 06:38:04;;;;;;;7.38;4.55;;;;;;;;;;5003637;28;20501;-77
2023/08/07 06:40:50;;;;;;;3.50;2.75;;;;;;;;;;5003519;28;20050;-77
2023/08/07 06:43:35;;;;;;;7.38;2.90;;;;;;;;;;5008450;28;20477;-78
2023/08/07 06:46:24;;;;;;;5.68;2.95;;;;;;;;;;5002245;28;20042;-76
2023/08/07 06:49:10;;;;;;;6.72;3.00;;;;;;;;;;4998413;28;20058;-78
2023/08/07 06:51:55;;;;;;;7.60;3.10;;;;;;;;;;5002576;28;20038;-78
2023/08/07 06:54:41;;;;;;;7.60;3.40;;;;;;;;;;5005028;28;20404;-77
2023/08/07 06:57:26;;;;;;;5.45;4.05;;;;;;;;;;4985786;28;21229;-77
2023/08/07 07:00:12;;;;;;;10.77;3.70;;;;;;;;;;5002382;28;20038;-77
2023/08/07 07:02:57;;;;;;;6.00;3.10;;;;;;;;;;5006150;28;20041;-76
2023/08/07 07:05:43;;;;;;;5.05;2.92;;;;;;;;;;5002631;28;20045;-79
2023/08/07 07:08:29;;;;;;;5.47;3.28;;;;;;;;;;4999498;28;20050;-76
2023/08/07 07:11:15;;;;;;;7.90;3.15;;;;;;;;;;4996751;28;20416;-77
2023/08/07 07:14:00;;;;;;;8.07;2.80;;;;;;;;;;5004865;28;20865;-79
2023/08/07 07:16:45;;;;;;;5.20;3.10;;;;;;;;;;5000852;28;20038;-77
2023/08/07 07:19:31;;;;;;;4.68;2.90;;;;;;;;;;5003503;28;20043;-78
2023/08/07 07:22:17;;;;;;;6.80;3.22;;;;;;;;;;5009888;28;20050;-77
2023/08/07 07:25:02;;;;;;;9.32;2.85;;;;;;;;;;5009640;28;20397;-80
2023/08/07 07:27:48;;;;;;;6.13;2.78;;;;;;;;;;5010009;28;20042;-78
2023/08/07 07:30:33;;;;;;;8.18;3.22;;;;;;;;;;5010200;28;20050;-78
2023/08/07 07:33:22;;;;;;;6.43;3.28;;;;;;;;;;5009057;28;20043;-77
2023/08/07 07:36:13;;;;;;;9.18;3.45;;;;;;;;;;5009907;28;20053;-78
2023/08/07 07:38:58;;;;;;;5.60;3.58;;;;;;;;;;5009965;28;20042;-77
2023/08/07 07:41:44;;;;;;;10.40;4.30;;;;;;;;;;5006415;28;20046;-78
2023/08/07 07:44:29;;;;;;;5.28;4.07;;;;;;;;;;5007204;28;20050;-78
2023/08/07 07:47:15;;;;;;;6.82;4.97;;;;;;;;;;4984911;28;20058;-76
2023/08/07 07:50:08;;;;;;;9.25;5.90;;;;;;;;;;5000287;28;20046;-77
2023/08/07 07:52:53;;;;;;;9.40;5.70;;;;;;;;;;4983979;28;20049;-77
2023/08/07 07:55:38;;;;;;;13.85;6.70;;;;;;;;;;5008322;28;20053;-77
2023/08/07 07:58:24;;;;;;;13.15;7.88;;;;;;;;;;5010668;28;20385;-76
2023/08/07 08:01:10;;;;;;;8.60;5.18;;;;;;;;;;5009598;28;20053;-76
2023/08/07 08:03:55;;;;;;;10.45;5.80;;;;;;;;;;5009450;28;20049;-78
2023/08/07 08:06:41;;;;;;;15.85;8.05;;;;;;;;;;5010833;28;20512;-77
2023/08/07 08:09:27;;;;;;;7.68;5.13;;;;;;;;;;5010692;28;20045;-79
2023/08/07 08:12:12;;;;;;;9.32;6.03;;;;;;;;;;5010630;28;20054;-78
2023/08/07 08:14:58;;;;;;;14.00;6.68;;;;;;;;;;5010440;28;20049;-78
2023/08/07 08:17:43;;;;;;;7.65;5.72;;;;;;;;;;5010445;28;20041;-78
2023/08/07 08:20:30;;;;;;;9.30;5.60;;;;;;;;;;5010853;28;20046;-76
2023/08/07 08:23:15;;;;;;;9.63;5.00;;;;;;;;;;5010863;28;20042;-80
2023/08/07 08:26:01;;;;;;;10.82;5.43;;;;;;;;;;5012297;28;20042;-78
2023/08/07 08:28:46;;;;;;;12.00;5.95;;;;;;;;;;5011420;28;20049;-78
2023/08/07 08:31:32;;;;;;;12.35;6.63;;;;;;;;;;5012127;28;20046;-78
2023/08/07 08:34:17;;;;;;;11.40;7.07;;;;;;;;;;5011744;28;20050;-79
2023/08/07 08:37:05;;;;;;;9.23;5.65;;;;;;;;;;5011848;28;20094;-78
2023/08/07 08:39:51;;;;;;;8.07;4.47;;;;;;;;;;5003545;28;20042;-78
2023/08/07 08:42:40;;;;;;;8.65;5.57;;;;;;;;;;5010356;28;20042;-78
2023/08/07 08:45:27;;;;;;;7.88;4.65;;;;;;;;;;5008856;28;20038;-78
2023/08/07 08:48:21;;;;;;;4.55;3.80;;;;;;;;;;5001758;28;20397;-76
2023/08/07 08:51:08;;;;;;;7.65;4.18;;;;;;;;;;5016296;28;20046;-75
2023/08/07 08:53:56;;;;;;;12.63;8.13;;;;;;;;;;5010729;28;20050;-76
2023/08/07 08:56:42;;;;;;;6.13;4.05;;;;;;;;;;5008924;28;20045;-77
2023/08/07 08:59:28;;;;;;;27.20;12.60;;;;;;;;;;5011195;28;20050;-78
2023/08/07 09:02:13;;;;;;;16.20;9.20;;;;;;;;;;5011839;28;20045;-79
2023/08/07 09:04:59;;;;;;;5.43;3.55;;;;;;;;;;5003115;28;20496;-79
2023/08/07 09:07:46;;;;;;;11.10;5.15;;;;;;;;;;5011638;28;20042;-77
2023/08/07 09:10:33;;;;;;;19.52;9.98;;;;;;;;;;5009924;28;20038;-78
2023/08/07 09:13:26;;;;;;;10.07;5.70;;;;;;;;;;5010089;28;21627;-79
2023/08/07 09:16:11;;;;;;;6.32;4.97;;;;;;;;;;5010369;28;20061;-76
2023/08/07 09:18:57;;;;;;;10.68;5.20;;;;;;;;;;5009980;28;20050;-76
2023/08/07 09:21:42;;;;;;;6.05;4.05;;;;;;;;;;5010131;28;20045;-76
2023/08/07 09:24:28;;;;;;;6.57;4.88;;;;;;;;;;5009999;28;20046;-78
2023/08/07 09:27:17;;;;;;;9.98;4.65;;;;;;;;;;4995722;28;20049;-78
2023/08/07 09:30:02;;;;;;;10.15;4.90;;;;;;;;;;5009755;28;20416;-80
2023/08/07 09:32:48;;;;;;;7.88;4.68;;;;;;;;;;5009601;28;20121;-77
2023/08/07 09:35:34;;;;;;;7.78;4.57;;;;;;;;;;5009504;28;20041;-79
2023/08/07 09:38:22;;;;;;;5.60;4.13;;;;;;;;;;5009575;28;20038;-77
2023/08/07 09:41:08;;;;;;;5.13;3.63;;;;;;;;;;5014743;28;20046;-80
2023/08/07 09:43:54;;;;;;;6.07;3.47;;;;;;;;;;5009333;28;20042;-80
2023/08/07 09:46:44;;;;;;;11.80;4.18;;;;;;;;;;5008871;28;20045;-79
2023/08/07 09:49:33;;;;;;;4.70;2.75;;;;;;;;;;5010278;28;20041;-78
2023/08/07 09:52:18;;;;;;;6.43;2.88;;;;;;;;;;5015989;28;20049;-80
2023/08/07 09:55:05;;;;;;;3.90;2.80;;;;;;;;;;5001712;28;20053;-78
2023/08/07 09:57:51;;;;;;;3.30;3.00;;;;;;;;;;5015412;28;20400;-79
2023/08/07 10:00:37;;;;;;;4.15;2.72;;;;;;;;;;5009555;28;20046;-78
2023/08/07 10:03:23;;;;;;;3.72;2.58;;;;;;;;;;5010408;28;20038;-79
2023/08/07 10:06:08;;;;;;;6.63;3.20;;;;;;;;;;5010144;28;20034;-79
2023/08/07 10:08:55;;;;;;;7.00;3.00;;;;;;;;;;5009902;28;20038;-79
2023/08/07 10:11:42;;;;;;;3.95;2.70;;;;;;;;;;5001514;28;20042;-78
2023/08/07 10:14:27;;;;;;;2.10;1.90;;;;;;;;;;5001231;28;20042;-80
2023/08/07 10:17:13;;;;;;;3.45;2.22;;;;;;;;;;5008668;28;20516;-78
2023/08/07 10:19:58;;;;;;;3.30;2.08;;;;;;;;;;5009563;28;20046;-78
2023/08/07 10:22:45;;;;;;;3.45;1.63;;;;;;;;;;5001723;28;20054;-80
2023/08/07 10:25:31;;;;;;;2.70;1.40;;;;;;;;;;5010012;28;20445;-80
2023/08/07 10:28:19;;;;;;;1.63;1.40;;;;;;;;;;5008412;28;20054;-81
2023/08/07 10:31:06;;;;;;;2.65;1.00;;;;;;;;;;5010104;28;20421;-79
2023/08/07 10:33:52;;;;;;;1.73;1.20;;;;;;;;;;5010153;28;20042;-79
2023/08/07 10:36:40;;;;;;;3.22;1.02;;;;;;;;;;5009902;28;20046;-79
2023/08/07 10:39:26;;;;;;;1.80;1.20;;;;;;;;;;5009711;28;20045;-80
2023/08/07 10:42:11;;;;;;;1.10;1.00;;;;;;;;;;5001567;28;20042;-81
2023/08/07 10:45:01;;;;;;;5.50;1.00;;;;;;;;;;5009710;28;20050;-78
2023/08/07 10:48:11;;;;;;;4.97;1.63;;;;;;;;;;5010204;28;20050;-77
2023/08/07 10:51:00;;;;;;;1.48;1.20;;;;;;;;;;5009931;28;20449;-80
2023/08/07 10:53:48;;;;;;;1.45;1.02;;;;;;;;;;5016636;28;20045;-79
2023/08/07 10:56:37;;;;;;;2.97;1.20;;;;;;;;;;5018620;28;20046;-81
2023/08/07 10:59:22;;;;;;;2.13;1.38;;;;;;;;;;5004144;28;20050;-78
2023/08/07 11:02:12;;;;;;;1.90;1.30;;;;;;;;;;5018709;28;20037;-81
2023/08/07 11:04:57;;;;;;;3.90;2.08;;;;;;;;;;5009586;28;20108;-79
2023/08/07 11:07:44;;;;;;;4.80;2.53;;;;;;;;;;5016985;28;20054;-78
2023/08/07 11:10:29;;;;;;;3.78;1.77;;;;;;;;;;5018090;28;20046;-77
2023/08/07 11:13:15;;;;;;;1.95;1.42;;;;;;;;;;5016744;28;20501;-76
2023/08/07 11:16:02;;;;;;;2.78;0.82;;;;;;;;;;5005191;28;20042;-79
2023/08/07 11:18:49;;;;;;;2.17;0.77;;;;;;;;;;5010805;28;20034;-79
2023/08/07 11:21:36;;;;;;;1.38;0.95;;;;;;;;;;5013369;28;20083;-80
2023/08/07 11:24:22;;;;;;;2.95;1.60;;;;;;;;;;5013127;28;20034;-80
2023/08/07 11:27:08;;;;;;;2.30;1.13;;;;;;;;;;5012770;28;20046;-81
2023/08/07 11:29:54;;;;;;;1.75;1.13;;;;;;;;;;5013174;28;20042;-80
2023/08/07 11:32:39;;;;;;;1.10;1.00;;;;;;;;;;5004646;28;20054;-79
2023/08/07 11:35:25;;;;;;;3.83;2.13;;;;;;;;;;5012901;28;20049;-78
2023/08/07 11:38:10;;;;;;;1.00;0.80;;;;;;;;;;5013065;28;20061;-77
2023/08/07 11:40:57;;;;;;;2.05;0.80;;;;;;;;;;4996531;28;20049;-78
2023/08/07 11:43:44;;;;;;;1.08;0.90;;;;;;;;;;5012715;28;20516;-79
2023/08/07 11:46:29;;;;;;;2.72;1.20;;;;;;;;;;5011806;28;20034;-79
2023/08/07 11:49:15;;;;;;;1.02;0.93;;;;;;;;;;5012812;28;20141;-80
2023/08/07 11:52:00;;;;;;;2.38;1.70;;;;;;;;;;5012637;28;20049;-80
2023/08/07 11:54:49;;;;;;;1.63;1.23;;;;;;;;;;5012100;28;20046;-81
2023/08/07 11:57:37;;;;;;;1.30;1.10;;;;;;;;;;5012136;28;20034;-79
2023/08/07 12:00:26;;;;;;;3.60;0.90;;;;;;;;;;5014591;28;20468;-79
2023/08/07 12:03:51;;;;;;;2.58;1.10;;;;;;;;;;5007046;28;20042;-78
2023/08/07 12:06:39;;;;;;;1.33;1.02;;;;;;;;;;4992342;28;20045;-80
2023/08/07 12:09:26;;;;;;;1.15;1.00;;;;;;;;;;5009300;28;20053;-79
2023/08/07 12:12:11;;;;;;;4.07;1.38;;;;;;;;;;5009751;28;20045;-79
2023/08/07 12:14:57;;;;;;;3.88;1.58;;;;;;;;;;5009302;28;20049;-76
2023/08/07 12:17:42;;;;;;;4.07;1.75;;;;;;;;;;5010120;28;20405;-76
2023/08/07 12:20:28;;;;;;;2.80;1.42;;;;;;;;;;5011115;28;20400;-78
2023/08/07 12:23:16;;;;;;;4.82;1.05;;;;;;;;;;5008464;28;20042;-77
2023/08/07 12:26:03;;;;;;;2.15;1.02;;;;;;;;;;5010552;28;20045;-79
2023/08/07 12:28:49;;;;;;;3.78;0.88;;;;;;;;;;5010881;28;20086;-78
2023/08/07 12:31:36;;;;;;;1.77;1.13;;;;;;;;;;5010403;28;20049;-79
2023/08/07 12:34:21;;;;;;;2.50;1.08;;;;;;;;;;4996443;28;20384;-78
2023/08/07 12:37:09;;;;;;;1.65;1.00;;;;;;;;;;5009622;28;20045;-79
2023/08/07 12:39:56;;;;;;;2.40;1.20;;;;;;;;;;5010895;28;20408;-78
2023/08/07 12:42:41;;;;;;;1.60;1.10;;;;;;;;;;5001626;28;20042;-78
2023/08/07 12:45:26;;;;;;;0.95;0.90;;;;;;;;;;5009342;28;20049;-76
2023/08/07 12:48:11;;;;;;;2.05;1.10;;;;;;;;;;5009876;28;20030;-77
2023/08/07 12:50:57;;;;;;;1.10;1.00;;;;;;;;;;5010264;28;20042;-77
2023/08/07 12:53:44;;;;;;;1.15;1.05;;;;;;;;;;5009163;28;20050;-76
2023/08/07 12:56:29;;;;;;;2.58;1.20;;;;;;;;;;5009882;28;20049;-77
2023/08/07 12:59:15;;;;;;;2.03;1.17;;;;;;;;;;5008894;28;20508;-78
2023/08/07 13:02:00;;;;;;;1.10;1.00;;;;;;;;;;5009723;28;20042;-77
2023/08/07 13:04:46;;;;;;;1.10;1.00;;;;;;;;;;5002393;28;20046;-78
2023/08/07 13:07:32;;;;;;;1.27;0.90;;;;;;;;;;5010165;28;20038;-78
2023/08/07 13:10:17;;;;;;;5.25;1.73;;;;;;;;;;5008905;28;20080;-79
2023/08/07 13:13:04;;;;;;;4.20;1.42;;;;;;;;;;5011319;28;20049;-78
2023/08/07 13:15:49;;;;;;;1.75;1.10;;;;;;;;;;5009255;28;20049;-80
2023/08/07 13:18:34;;;;;;;2.33;1.08;;;;;;;;;;5011254;28;20045;-79
2023/08/07 13:21:20;;;;;;;4.97;1.20;;;;;;;;;;5010106;28;20045;-80
2023/08/07 13:24:05;;;;;;;2.13;1.10;;;;;;;;;;5009111;28;20042;-78
2023/08/07 13:26:50;;;;;;;1.17;1.08;;;;;;;;;;4994409;28;20042;-78
2023/08/07 13:29:35;;;;;;;4.95;1.00;;;;;;;;;;5009756;28;20037;-77
2023/08/07 13:32:21;;;;;;;1.30;1.20;;;;;;;;;;5009494;28;20034;-77
2023/08/07 13:35:07;;;;;;;1.58;1.10;;;;;;;;;;5009283;28;20045;-78
2023/08/07 13:37:52;;;;;;;2.25;1.23;;;;;;;;;;5008209;28;20053;-78
2023/08/07 13:40:38;;;;;;;4.85;1.38;;;;;;;;;;5009736;28;20046;-79
2023/08/07 13:43:23;;;;;;;4.88;1.65;;;;;;;;;;5007677;28;20053;-79
2023/08/07 13:46:09;;;;;;;2.72;1.45;;;;;;;;;;5008781;28;20046;-78
2023/08/07 13:48:54;;;;;;;2.30;1.52;;;;;;;;;;5007298;28;20042;-78
2023/08/07 13:51:43;;;;;;;1.30;1.20;;;;;;;;;;5008483;28;20038;-79
2023/08/07 13:54:29;;;;;;;1.35;1.13;;;;;;;;;;5008183;28;20042;-78
2023/08/07 13:57:15;;;;;;;1.38;1.10;;;;;;;;;;5015250;28;20046;-77
2023/08/07 14:00:00;;;;;;;3.17;1.40;;;;;;;;;;5007741;28;20396;-77
2023/08/07 14:02:45;;;;;;;2.95;1.38;;;;;;;;;;5007548;28;20041;-78
2023/08/07 14:05:31;;;;;;;2.17;1.23;;;;;;;;;;5009253;28;20476;-77
2023/08/07 14:08:16;;;;;;;5.55;2.67;;;;;;;;;;5006443;28;20053;-79
2023/08/07 14:11:02;;;;;;;9.00;1.75;;;;;;;;;;5008401;28;20034;-79
2023/08/07 14:13:48;;;;;;;5.15;1.60;;;;;;;;;;5009611;28;20041;-80
2023/08/07 14:16:35;;;;;;;5.53;1.75;;;;;;;;;;5010318;28;20424;-78
2023/08/07 14:19:20;;;;;;;2.75;1.30;;;;;;;;;;5007857;28;20046;-79
2023/08/07 14:22:05;;;;;;;2.28;1.40;;;;;;;;;;5009541;28;20042;-77
2023/08/07 14:24:50;;;;;;;1.73;1.35;;;;;;;;;;5010271;28;20054;-79
2023/08/07 14:27:35;;;;;;;4.28;1.65;;;;;;;;;;5016386;28;20042;-79
2023/08/07 14:30:21;;;;;;;2.15;1.40;;;;;;;;;;5015620;28;20046;-80
2023/08/07 14:33:07;;;;;;;38.33;16.50;;;;;;;;;;5015292;28;20050;-78
2023/08/07 14:35:53;;;;;;;16.55;6.43;;;;;;;;;;5008376;28;20046;-76
2023/08/07 14:38:41;;;;;;;4.53;2.80;;;;;;;;;;5016092;28;20046;-80
2023/08/07 14:41:26;;;;;;;3.00;1.70;;;;;;;;;;5014948;28;20050;-79
2023/08/07 14:44:12;;;;;;;6.35;1.50;;;;;;;;;;5008352;28;20045;-79
2023/08/07 14:46:58;;;;;;;1.70;1.33;;;;;;;;;;5014516;28;20038;-78
2023/08/07 14:49:44;;;;;;;3.30;1.70;;;;;;;;;;5015451;28;20037;-76
2023/08/07 14:52:30;;;;;;;3.35;1.40;;;;;;;;;;5015392;28;20042;-77
2023/08/07 14:55:15;;;;;;;8.27;1.55;;;;;;;;;;5014002;28;20045;-77
2023/08/07 14:58:01;;;;;;;8.18;4.50;;;;;;;;;;5015158;28;20050;-79
2023/08/07 15:00:46;;;;;;;4.82;1.90;;;;;;;;;;5015935;28;20472;-77
2023/08/07 15:03:32;;;;;;;2.78;1.98;;;;;;;;;;5016401;28;20042;-79
2023/08/07 15:06:17;;;;;;;3.58;1.95;;;;;;;;;;5006943;28;20046;-78
2023/08/07 15:09:03;;;;;;;8.30;2.00;;;;;;;;;;5015050;28;20062;-79
2023/08/07 15:11:49;;;;;;;7.18;1.40;;;;;;;;;;5016005;28;20038;-79
2023/08/07 15:14:35;;;;;;;7.47;2.10;;;;;;;;;;5015232;28;20054;-77
2023/08/07 15:17:20;;;;;;;18.33;4.20;;;;;;;;;;5015096;28;20049;-79
2023/08/07 15:20:09;;;;;;;16.23;4.70;;;;;;;;;;5015121;28;20045;-79
2023/08/07 15:22:55;;;;;;;16.23;3.88;;;;;;;;;;5015673;28;20488;-78
2023/08/07 15:25:42;;;;;;;8.48;2.53;;;;;;;;;;5015229;28;20045;-78
2023/08/07 15:28:28;;;;;;;4.25;1.85;;;;;;;;;;5015014;28;20456;-78
2023/08/07 15:31:13;;;;;;;7.15;2.50;;;;;;;;;;5014965;28;20042;-78
2023/08/07 15:33:59;;;;;;;6.78;2.97;;;;;;;;;;5014985;28;20053;-76
2023/08/07 15:36:45;;;;;;;15.70;8.02;;;;;;;;;;5012846;28;20053;-75
2023/08/07 15:39:30;;;;;;;9.68;4.70;;;;;;;;;;5011138;28;20046;-78
2023/08/07 15:42:15;;;;;;;5.70;2.88;;;;;;;;;;5012187;28;20034;-77
2023/08/07 15:45:04;;;;;;;15.35;3.88;;;;;;;;;;5011122;28;20408;-79
2023/08/07 15:47:52;;;;;;;5.43;2.58;;;;;;;;;;4997383;28;20042;-77
2023/08/07 15:50:53;;;;;;;13.43;3.15;;;;;;;;;;5012135;28;20038;-81
2023/08/07 15:53:40;;;;;;;4.43;2.72;;;;;;;;;;4996514;28;20050;-78
2023/08/07 15:56:25;;;;;;;7.88;3.80;;;;;;;;;;5011300;28;20054;-78
2023/08/07 15:59:21;;;;;;;4.97;3.15;;;;;;;;;;5000360;28;20049;-79
2023/08/07 16:02:07;;;;;;;3.88;2.33;;;;;;;;;;5010873;28;20049;-76
2023/08/07 16:04:53;;;;;;;4.82;2.88;;;;;;;;;;5008924;28;20054;-77
2023/08/07 16:07:38;;;;;;;5.43;2.67;;;;;;;;;;5009998;28;20042;-78
2023/08/07 16:10:26;;;;;;;4.47;2.83;;;;;;;;;;5012645;28;20050;-76
2023/08/07 16:13:11;;;;;;;4.72;2.33;;;;;;;;;;5012362;28;20053;-75
2023/08/07 16:15:56;;;;;;;4.50;2.50;;;;;;;;;;5012096;28;20045;-78
2023/08/07 16:18:42;;;;;;;3.88;2.33;;;;;;;;;;5012014;28;20045;-77
2023/08/07 16:21:28;;;;;;;3.72;2.83;;;;;;;;;;5010967;28;20045;-78
2023/08/07 16:24:13;;;;;;;5.15;3.10;;;;;;;;;;5011422;28;20041;-76
2023/08/07 16:26:59;;;;;;;3.42;2.70;;;;;;;;;;5012332;28;20046;-77
2023/08/07 16:29:44;;;;;;;4.43;2.83;;;;;;;;;;5012004;28;20042;-77
2023/08/07 16:32:34;;;;;;;5.65;2.35;;;;;;;;;;5011942;28;20042;-77
2023/08/07 16:35:19;;;;;;;5.40;2.65;;;;;;;;;;4995958;28;20053;-78